createdAt,value
2019-05-19T00:00:40.749Z,97349.00
2019-05-19T00:03:29.039Z,97378.00
2019-05-19T00:06:17.334Z,97351.00
2019-05-19T00:09:05.940Z,97346.00
2019-05-19T00:15:01.648Z,97271.00
2019-05-19T00:20:59.244Z,97340.00
2019-05-19T00:23:47.529Z,97345.00
2019-05-19T00:26:16.693Z,97336.00
2019-05-19T00:28:45.715Z,97341.00
2019-05-19T00:31:14.779Z,97343.00
2019-05-19T00:33:43.979Z,97346.00
2019-05-19T00:36:13.199Z,97334.00
2019-05-19T00:38:42.273Z,97327.00
2019-05-19T00:41:11.434Z,97336.00
2019-05-19T00:43:40.448Z,97327.00
2019-05-19T00:46:09.621Z,97330.00
2019-05-19T00:48:38.800Z,97326.00
2019-05-19T00:51:08.032Z,97318.00
2019-05-19T00:53:37.283Z,97321.00
2019-05-19T00:56:06.437Z,97322.00
2019-05-19T00:58:35.660Z,97320.00
2019-05-19T01:01:04.862Z,97330.00
2019-05-19T01:03:33.929Z,97328.00
2019-05-19T01:06:03.008Z,97329.00
2019-05-19T01:08:32.205Z,97326.00
2019-05-19T01:11:01.449Z,97316.00
2019-05-19T01:13:30.540Z,97316.00
2019-05-19T01:15:59.624Z,97319.00
2019-05-19T01:18:28.766Z,97323.00
2019-05-19T01:20:57.786Z,97299.00
2019-05-19T01:23:26.983Z,97320.00
2019-05-19T01:25:56.063Z,97310.00
2019-05-19T01:28:25.077Z,97306.00
2019-05-19T01:30:54.306Z,97307.00
2019-05-19T01:33:23.560Z,97307.00
2019-05-19T01:35:52.836Z,97313.00
2019-05-19T01:38:22.138Z,97314.00
2019-05-19T01:40:51.243Z,97317.00
2019-05-19T01:43:20.727Z,97315.00
2019-05-19T01:45:49.882Z,97310.00
2019-05-19T01:48:18.968Z,97306.00
2019-05-19T01:50:48.213Z,97301.00
2019-05-19T01:53:17.732Z,97300.00
2019-05-19T01:55:47.382Z,97303.00
2019-05-19T01:58:16.558Z,97299.00
2019-05-19T02:00:45.860Z,97297.00
2019-05-19T02:03:15.121Z,97302.00
2019-05-19T02:05:44.207Z,97311.00
2019-05-19T02:08:13.387Z,97306.00
2019-05-19T02:10:42.474Z,97306.00
2019-05-19T02:13:11.737Z,97312.00
2019-05-19T02:15:41.056Z,97306.00
2019-05-19T02:18:10.322Z,97303.00
2019-05-19T02:20:39.571Z,97307.00
2019-05-19T02:23:09.466Z,97306.00
2019-05-19T02:25:38.669Z,97315.00
2019-05-19T02:28:07.898Z,97301.00
2019-05-19T02:30:37.079Z,97293.00
2019-05-19T02:33:06.415Z,97297.00
2019-05-19T02:35:35.657Z,97300.00
2019-05-19T02:38:04.757Z,97290.00
2019-05-19T02:40:33.988Z,97297.00
2019-05-19T02:43:03.185Z,97292.00
2019-05-19T02:45:32.910Z,97300.00
2019-05-19T02:48:02.180Z,97300.00
2019-05-19T02:50:31.415Z,97298.00
2019-05-19T02:53:00.815Z,97294.00
2019-05-19T02:55:30.194Z,97303.00
2019-05-19T02:57:59.452Z,97308.00
2019-05-19T03:00:36.864Z,97289.00
2019-05-19T03:03:06.383Z,97301.00
2019-05-19T03:05:35.904Z,97304.00
2019-05-19T03:08:05.155Z,97299.00
2019-05-19T03:10:34.394Z,97319.00
2019-05-19T03:13:03.584Z,97319.00
2019-05-19T03:15:32.939Z,97317.00
2019-05-19T03:18:02.244Z,97307.00
2019-05-19T03:20:31.573Z,97312.00
2019-05-19T03:23:00.717Z,97311.00
2019-05-19T03:25:29.816Z,97319.00
2019-05-19T03:27:58.890Z,97312.00
2019-05-19T03:30:46.125Z,97314.00
2019-05-19T03:33:17.781Z,97323.00
2019-05-19T03:35:47.034Z,97314.00
2019-05-19T03:38:16.183Z,97316.00
2019-05-19T03:40:45.434Z,97318.00
2019-05-19T03:43:14.875Z,97319.00
2019-05-19T03:45:43.971Z,97316.00
2019-05-19T03:48:13.266Z,97317.00
2019-05-19T03:50:42.745Z,97327.00
2019-05-19T03:53:11.895Z,97325.00
2019-05-19T03:55:41.504Z,97310.00
2019-05-19T03:58:10.666Z,97321.00
2019-05-19T04:00:40.051Z,97323.00
2019-05-19T04:03:09.307Z,97331.00
2019-05-19T04:05:38.477Z,97320.00
2019-05-19T04:08:07.747Z,97325.00
2019-05-19T04:10:37.005Z,97328.00
2019-05-19T04:13:06.136Z,97320.00
2019-05-19T04:15:35.362Z,97328.00
2019-05-19T04:18:04.621Z,97318.00
2019-05-19T04:20:35.524Z,97328.00
2019-05-19T04:23:04.683Z,97327.00
2019-05-19T04:25:33.898Z,97339.00
2019-05-19T04:28:02.674Z,97340.00
2019-05-19T04:30:31.448Z,97328.00
2019-05-19T04:33:00.219Z,97324.00
2019-05-19T04:35:28.966Z,97334.00
2019-05-19T04:37:57.735Z,97333.00
2019-05-19T04:40:26.501Z,97328.00
2019-05-19T04:42:55.336Z,97329.00
2019-05-19T04:45:24.082Z,97329.00
2019-05-19T04:47:53.339Z,97331.00
2019-05-19T04:50:22.061Z,97340.00
2019-05-19T04:52:50.812Z,97338.00
2019-05-19T04:55:19.528Z,97342.00
2019-05-19T04:57:48.262Z,97342.00
2019-05-19T05:00:17.071Z,97338.00
2019-05-19T05:02:45.828Z,97344.00
2019-05-19T05:05:15.069Z,97338.00
2019-05-19T05:07:43.810Z,97344.00
2019-05-19T05:10:12.553Z,97342.00
2019-05-19T05:12:41.314Z,97344.00
2019-05-19T05:15:10.051Z,97348.00
2019-05-19T05:17:38.819Z,97344.00
2019-05-19T05:20:07.567Z,97339.00
2019-05-19T05:22:36.336Z,97346.00
2019-05-19T05:25:05.295Z,97348.00
2019-05-19T05:27:34.033Z,97346.00
2019-05-19T05:30:02.812Z,97347.00
2019-05-19T05:32:31.551Z,97340.00
2019-05-19T05:35:00.364Z,97340.00
2019-05-19T05:37:29.108Z,97340.00
2019-05-19T05:39:57.879Z,97341.00
2019-05-19T05:42:26.655Z,97321.00
2019-05-19T05:44:55.410Z,97334.00
2019-05-19T05:47:24.143Z,97328.00
2019-05-19T05:49:52.887Z,97335.00
2019-05-19T05:52:36.069Z,97322.00
2019-05-19T05:54:52.116Z,97324.00
2019-05-19T05:57:20.856Z,97323.00
2019-05-19T05:59:49.823Z,97326.00
2019-05-19T06:02:18.576Z,97327.00
2019-05-19T06:04:47.326Z,97328.00
2019-05-19T06:07:16.067Z,97325.00
2019-05-19T06:09:44.806Z,97335.00
2019-05-19T06:12:13.731Z,97428.00
2019-05-19T06:14:42.537Z,97333.00
2019-05-19T06:17:11.316Z,97326.00
2019-05-19T06:19:40.047Z,97328.00
2019-05-19T06:22:08.778Z,97331.00
2019-05-19T06:24:37.538Z,97339.00
2019-05-19T06:27:06.363Z,97329.00
2019-05-19T06:29:35.211Z,97332.00
2019-05-19T06:32:11.820Z,97325.00
2019-05-19T06:34:40.814Z,97334.00
2019-05-19T06:37:09.557Z,97331.00
2019-05-19T06:39:38.378Z,97337.00
2019-05-19T06:42:07.119Z,97333.00
2019-05-19T06:44:35.862Z,97336.00
2019-05-19T06:47:04.623Z,97320.00
2019-05-19T06:49:33.365Z,97330.00
2019-05-19T06:52:02.125Z,97327.00
2019-05-19T06:54:30.864Z,97326.00
2019-05-19T06:56:59.609Z,97337.00
2019-05-19T06:59:28.366Z,97335.00
2019-05-19T07:01:57.374Z,97316.00
2019-05-19T07:04:26.141Z,97319.00
2019-05-19T07:06:55.058Z,97317.00
2019-05-19T07:09:23.895Z,97320.00
2019-05-19T07:11:52.702Z,97314.00
2019-05-19T07:14:21.502Z,97309.00
2019-05-19T07:16:50.245Z,97309.00
2019-05-19T07:19:19.443Z,97320.00
2019-05-19T07:21:48.182Z,97303.00
2019-05-19T07:24:17.112Z,97306.00
2019-05-19T07:26:45.822Z,97310.00
2019-05-19T07:29:14.568Z,97305.00
2019-05-19T07:31:43.331Z,97308.00
2019-05-19T07:34:12.072Z,97315.00
2019-05-19T07:36:40.799Z,97305.00
2019-05-19T07:39:09.536Z,97313.00
2019-05-19T07:41:44.078Z,97308.00
2019-05-19T07:44:17.727Z,97308.00
2019-05-19T07:46:46.481Z,97298.00
2019-05-19T07:49:15.219Z,97299.00
2019-05-19T07:51:44.056Z,97304.00
2019-05-19T07:54:12.875Z,97297.00
2019-05-19T07:56:41.675Z,97297.00
2019-05-19T07:59:11.423Z,97304.00
2019-05-19T08:01:43.369Z,97304.00
2019-05-19T08:04:12.111Z,97300.00
2019-05-19T08:06:40.851Z,97307.00
2019-05-19T08:09:09.671Z,97306.00
2019-05-19T08:11:38.423Z,97302.00
2019-05-19T08:14:07.320Z,97297.00
2019-05-19T08:16:36.156Z,97303.00
2019-05-19T08:19:05.302Z,97297.00
2019-05-19T08:21:34.158Z,97294.00
2019-05-19T08:24:03.254Z,97298.00
2019-05-19T08:26:32.025Z,97298.00
2019-05-19T08:29:00.811Z,97279.00
2019-05-19T08:31:29.716Z,97283.00
2019-05-19T08:33:58.730Z,97286.00
2019-05-19T08:36:27.578Z,97279.00
2019-05-19T08:38:56.403Z,97285.00
2019-05-19T08:41:25.232Z,97288.00
2019-05-19T08:43:54.146Z,97277.00
2019-05-19T08:46:22.951Z,97290.00
2019-05-19T08:48:51.767Z,97276.00
2019-05-19T08:51:20.655Z,97305.00
2019-05-19T08:53:49.404Z,97287.00
2019-05-19T08:56:18.155Z,97277.00
2019-05-19T08:58:46.906Z,97279.00
2019-05-19T09:01:15.720Z,97285.00
2019-05-19T09:03:44.588Z,97289.00
2019-05-19T09:06:13.343Z,97273.00
2019-05-19T09:08:42.239Z,97278.00
2019-05-19T09:11:11.000Z,97273.00
2019-05-19T09:13:39.750Z,97263.00
2019-05-19T09:16:08.673Z,97270.00
2019-05-19T09:18:37.424Z,97276.00
2019-05-19T09:21:08.926Z,97269.00
2019-05-19T09:23:37.678Z,97275.00
2019-05-19T09:26:06.410Z,97275.00
2019-05-19T09:28:35.558Z,97284.00
2019-05-19T09:31:04.294Z,97271.00
2019-05-19T09:33:33.107Z,97268.00
2019-05-19T09:36:02.038Z,97256.00
2019-05-19T09:38:30.835Z,97270.00
2019-05-19T09:40:59.622Z,97267.00
2019-05-19T09:43:28.363Z,97264.00
2019-05-19T09:45:57.103Z,97260.00
2019-05-19T09:48:26.201Z,97266.00
2019-05-19T09:50:55.065Z,97255.00
2019-05-19T09:53:23.886Z,97263.00
2019-05-19T09:55:52.903Z,97260.00
2019-05-19T09:58:21.638Z,97258.00
2019-05-19T10:00:50.463Z,97241.00
2019-05-19T10:03:19.816Z,97253.00
2019-05-19T10:05:48.950Z,97253.00
2019-05-19T10:08:21.443Z,97253.00
2019-05-19T10:11:00.955Z,97255.00
2019-05-19T10:13:29.718Z,97257.00
2019-05-19T10:15:58.443Z,97260.00
2019-05-19T10:18:27.175Z,97252.00
2019-05-19T10:20:55.907Z,97243.00
2019-05-19T10:23:24.914Z,97237.00
2019-05-19T10:25:53.648Z,97239.00
2019-05-19T10:28:22.386Z,97242.00
2019-05-19T10:30:51.189Z,97233.00
2019-05-19T10:33:19.941Z,97230.00
2019-05-19T10:35:48.758Z,97238.00
2019-05-19T10:38:17.948Z,97229.00
2019-05-19T10:40:46.889Z,97220.00
2019-05-19T10:43:15.622Z,97213.00
2019-05-19T10:45:46.250Z,97218.00
2019-05-19T10:48:15.031Z,97219.00
2019-05-19T10:50:43.778Z,97228.00
2019-05-19T10:53:12.540Z,97220.00
2019-05-19T10:55:41.309Z,97219.00
2019-05-19T10:58:10.096Z,97221.00
2019-05-19T11:00:38.879Z,97224.00
2019-05-19T11:03:07.616Z,97225.00
2019-05-19T11:05:36.378Z,97236.00
2019-05-19T11:08:05.561Z,97219.00
2019-05-19T11:10:34.354Z,97223.00
2019-05-19T11:13:03.127Z,97214.00
2019-05-19T11:15:31.927Z,97217.00
2019-05-19T11:18:00.668Z,97220.00
2019-05-19T11:20:29.414Z,97208.00
2019-05-19T11:22:58.115Z,97205.00
2019-05-19T11:25:33.935Z,97201.00
2019-05-19T11:27:57.323Z,97202.00
2019-05-19T11:30:35.404Z,97198.00
2019-05-19T11:33:04.333Z,97208.00
2019-05-19T11:35:33.083Z,97208.00
2019-05-19T11:38:03.658Z,97199.00
2019-05-19T11:40:32.402Z,97195.00
2019-05-19T11:43:01.223Z,97202.00
2019-05-19T11:45:29.961Z,97194.00
2019-05-19T11:47:58.735Z,97195.00
2019-05-19T11:50:27.532Z,97196.00
2019-05-19T11:52:56.452Z,97199.00
2019-05-19T11:55:25.268Z,97188.00
2019-05-19T11:57:53.991Z,97184.00
2019-05-19T12:00:22.739Z,97193.00
2019-05-19T12:02:53.093Z,97188.00
2019-05-19T12:05:25.397Z,97191.00
2019-05-19T12:07:54.263Z,97192.00
2019-05-19T12:10:23.330Z,97192.00
2019-05-19T12:12:52.091Z,97183.00
2019-05-19T12:15:20.919Z,97180.00
2019-05-19T12:17:49.672Z,97174.00
2019-05-19T12:20:18.399Z,97181.00
2019-05-19T12:22:47.191Z,97174.00
2019-05-19T12:25:15.939Z,97170.00
2019-05-19T12:27:44.699Z,97170.00
2019-05-19T12:30:18.180Z,97175.00
2019-05-19T12:32:46.931Z,97141.00
2019-05-19T12:35:15.691Z,97167.00
2019-05-19T12:37:44.452Z,97172.00
2019-05-19T12:40:13.294Z,97171.00
2019-05-19T12:42:42.022Z,97170.00
2019-05-19T12:45:10.793Z,97158.00
2019-05-19T12:47:39.578Z,97172.00
2019-05-19T12:50:08.397Z,97168.00
2019-05-19T12:52:37.421Z,97166.00
2019-05-19T12:55:06.220Z,97164.00
2019-05-19T12:57:35.048Z,97163.00
2019-05-19T13:00:03.898Z,97153.00
2019-05-19T13:02:32.726Z,97146.00
2019-05-19T13:05:05.317Z,97151.00
2019-05-19T13:07:31.962Z,97136.00
2019-05-19T13:10:00.702Z,97140.00
2019-05-19T13:12:29.534Z,97149.00
2019-05-19T13:14:58.300Z,97145.00
2019-05-19T13:17:27.034Z,97148.00
2019-05-19T13:19:55.813Z,97149.00
2019-05-19T13:22:24.689Z,97148.00
2019-05-19T13:24:53.425Z,97151.00
2019-05-19T13:27:22.180Z,97152.00
2019-05-19T13:29:50.951Z,97150.00
2019-05-19T13:32:19.688Z,97161.00
2019-05-19T13:34:49.027Z,97155.00
2019-05-19T13:37:18.093Z,97172.00
2019-05-19T13:39:46.878Z,97171.00
2019-05-19T13:42:15.810Z,97163.00
2019-05-19T13:44:44.792Z,97172.00
2019-05-19T13:47:13.528Z,97176.00
2019-05-19T13:49:42.326Z,97171.00
2019-05-19T13:52:11.323Z,97151.00
2019-05-19T13:54:40.078Z,97146.00
2019-05-19T13:57:12.159Z,97137.00
2019-05-19T13:59:39.322Z,97137.00
2019-05-19T14:02:08.068Z,97138.00
2019-05-19T14:04:36.916Z,97135.00
2019-05-19T14:07:05.821Z,97135.00
2019-05-19T14:09:34.572Z,97132.00
2019-05-19T14:12:03.357Z,97129.00
2019-05-19T14:14:32.377Z,97125.00
2019-05-19T14:17:01.368Z,97114.00
2019-05-19T14:19:30.193Z,97119.00
2019-05-19T14:21:59.011Z,97118.00
2019-05-19T14:24:28.666Z,97110.00
2019-05-19T14:26:57.535Z,97120.00
2019-05-19T14:29:26.270Z,97113.00
2019-05-19T14:31:55.388Z,97110.00
2019-05-19T14:34:24.119Z,97109.00
2019-05-19T14:36:52.883Z,97122.00
2019-05-19T14:39:21.711Z,97114.00
2019-05-19T14:41:57.619Z,97105.00
2019-05-19T14:44:26.363Z,97105.00
2019-05-19T14:46:55.202Z,97111.00
2019-05-19T14:49:23.999Z,97105.00
2019-05-19T14:51:52.743Z,97114.00
2019-05-19T14:54:21.497Z,97106.00
2019-05-19T14:56:50.306Z,97098.00
2019-05-19T14:59:19.246Z,97096.00
2019-05-19T15:01:50.167Z,97097.00
2019-05-19T15:04:18.912Z,97102.00
2019-05-19T15:06:47.663Z,97095.00
2019-05-19T15:09:16.416Z,97111.00
2019-05-19T15:11:45.134Z,97106.00
2019-05-19T15:14:13.877Z,97095.00
2019-05-19T15:16:42.892Z,97097.00
2019-05-19T15:19:11.697Z,97100.00
2019-05-19T15:21:40.574Z,97099.00
2019-05-19T15:24:09.347Z,97096.00
2019-05-19T15:26:38.086Z,97089.00
2019-05-19T15:29:06.861Z,97090.00
2019-05-19T15:31:35.605Z,97077.00
2019-05-19T15:34:04.392Z,97083.00
2019-05-19T15:36:34.662Z,97078.00
2019-05-19T15:39:04.739Z,97075.00
2019-05-19T15:41:33.487Z,97073.00
2019-05-19T15:44:02.584Z,97061.00
2019-05-19T15:46:31.354Z,97063.00
2019-05-19T15:49:00.183Z,97070.00
2019-05-19T15:51:36.328Z,97059.00
2019-05-19T15:53:59.531Z,97061.00
2019-05-19T15:56:28.330Z,97058.00
2019-05-19T15:58:57.101Z,97060.00
2019-05-19T16:01:25.861Z,97059.00
2019-05-19T16:03:54.688Z,97056.00
2019-05-19T16:06:23.453Z,97063.00
2019-05-19T16:08:52.184Z,97070.00
2019-05-19T16:11:20.979Z,97070.00
2019-05-19T16:13:49.747Z,97072.00
2019-05-19T16:16:18.506Z,97078.00
2019-05-19T16:18:47.236Z,97085.00
2019-05-19T16:21:15.985Z,97075.00
2019-05-19T16:23:44.822Z,97094.00
2019-05-19T16:26:13.570Z,97095.00
2019-05-19T16:28:42.389Z,97106.00
2019-05-19T16:31:11.118Z,97098.00
2019-05-19T16:33:39.899Z,97103.00
2019-05-19T16:36:09.239Z,97107.00
2019-05-19T16:38:38.038Z,97097.00
2019-05-19T16:41:07.175Z,97105.00
2019-05-19T16:43:36.176Z,97111.00
2019-05-19T16:46:05.079Z,97106.00
2019-05-19T16:48:36.431Z,97121.00
2019-05-19T16:51:05.370Z,97111.00
2019-05-19T16:53:34.330Z,97115.00
2019-05-19T16:56:03.272Z,97113.00
2019-05-19T16:58:44.403Z,97106.00
2019-05-19T17:01:02.891Z,97111.00
2019-05-19T17:03:32.136Z,97103.00
2019-05-19T17:06:01.003Z,97111.00
2019-05-19T17:08:29.739Z,97115.00
2019-05-19T17:10:58.503Z,97118.00
2019-05-19T17:13:27.480Z,97122.00
2019-05-19T17:15:56.314Z,97116.00
2019-05-19T17:18:25.112Z,97115.00
2019-05-19T17:21:00.015Z,97120.00
2019-05-19T17:24:08.840Z,97119.00
2019-05-19T17:26:38.082Z,97118.00
2019-05-19T17:29:06.928Z,97113.00
2019-05-19T17:31:35.779Z,97118.00
2019-05-19T17:34:04.631Z,97113.00
2019-05-19T17:36:33.476Z,97116.00
2019-05-19T17:39:02.342Z,97117.00
2019-05-19T17:41:31.167Z,97127.00
2019-05-19T17:44:00.164Z,97131.00
2019-05-19T17:46:29.255Z,97141.00
2019-05-19T17:48:57.998Z,97134.00
2019-05-19T17:51:26.834Z,97138.00
2019-05-19T17:53:55.673Z,97133.00
2019-05-19T17:56:26.603Z,97140.00
2019-05-19T17:59:16.511Z,97143.00
2019-05-19T18:01:42.167Z,97132.00
2019-05-19T18:04:12.310Z,97129.00
2019-05-19T18:06:41.138Z,97124.00
2019-05-19T18:09:09.909Z,97121.00
2019-05-19T18:11:38.642Z,97109.00
2019-05-19T18:14:07.415Z,97117.00
2019-05-19T18:16:36.155Z,97113.00
2019-05-19T18:19:04.891Z,97107.00
2019-05-19T18:21:33.743Z,97108.00
2019-05-19T18:24:02.519Z,97110.00
2019-05-19T18:26:31.387Z,97110.00
2019-05-19T18:29:00.103Z,97099.00
2019-05-19T18:31:31.114Z,97100.00
2019-05-19T18:33:59.391Z,97104.00
2019-05-19T18:36:28.181Z,97110.00
2019-05-19T18:38:56.920Z,97127.00
2019-05-19T18:41:25.649Z,97150.00
2019-05-19T18:43:54.641Z,97147.00
2019-05-19T18:46:23.755Z,97158.00
2019-05-19T18:48:52.514Z,97152.00
2019-05-19T18:51:21.251Z,97155.00
2019-05-19T18:53:50.003Z,97164.00
2019-05-19T18:56:18.752Z,97161.00
2019-05-19T18:58:47.474Z,97165.00
2019-05-19T19:01:16.227Z,97170.00
2019-05-19T19:03:44.995Z,97165.00
2019-05-19T19:06:13.722Z,97163.00
2019-05-19T19:08:42.467Z,97159.00
2019-05-19T19:11:11.219Z,97170.00
2019-05-19T19:13:39.951Z,97164.00
2019-05-19T19:16:08.674Z,97167.00
2019-05-19T19:18:37.427Z,97173.00
2019-05-19T19:21:06.180Z,97178.00
2019-05-19T19:23:35.158Z,97183.00
2019-05-19T19:26:03.895Z,97183.00
2019-05-19T19:28:32.651Z,97195.00
2019-05-19T19:31:01.480Z,97207.00
2019-05-19T19:33:30.254Z,97199.00
2019-05-19T19:35:58.987Z,97192.00
2019-05-19T19:38:27.959Z,97191.00
2019-05-19T19:40:56.691Z,97183.00
2019-05-19T19:43:25.456Z,97182.00
2019-05-19T19:45:54.212Z,97196.00
2019-05-19T19:48:22.971Z,97199.00
2019-05-19T19:50:51.699Z,97189.00
2019-05-19T19:53:20.528Z,97186.00
2019-05-19T19:55:49.316Z,97198.00
2019-05-19T19:58:18.351Z,97195.00
2019-05-19T20:00:47.533Z,97201.00
2019-05-19T20:03:16.351Z,97207.00
2019-05-19T20:05:45.212Z,97203.00
2019-05-19T20:08:14.036Z,97218.00
2019-05-19T20:10:42.773Z,97228.00
2019-05-19T20:13:11.514Z,97230.00
2019-05-19T20:15:40.267Z,97257.00
2019-05-19T20:18:09.007Z,97262.00
2019-05-19T20:20:37.829Z,97268.00
2019-05-19T20:23:06.848Z,97280.00
2019-05-19T20:25:37.274Z,97277.00
2019-05-19T20:28:06.096Z,97270.00
2019-05-19T20:30:36.482Z,97270.00
2019-05-19T20:33:05.371Z,97270.00
2019-05-19T20:35:34.210Z,97275.00
2019-05-19T20:38:02.959Z,97264.00
2019-05-19T20:40:31.725Z,97272.00
2019-05-19T20:43:00.544Z,97278.00
2019-05-19T20:45:29.312Z,97280.00
2019-05-19T20:47:58.367Z,97274.00
2019-05-19T20:50:27.116Z,97268.00
2019-05-19T20:52:55.944Z,97265.00
2019-05-19T20:55:24.766Z,97269.00
2019-05-19T20:57:53.562Z,97279.00
2019-05-19T21:00:22.327Z,97271.00
2019-05-19T21:02:51.159Z,97264.00
2019-05-19T21:05:19.969Z,97278.00
2019-05-19T21:07:48.852Z,97268.00
2019-05-19T21:10:17.633Z,97245.00
2019-05-19T21:12:46.378Z,97288.00
2019-05-19T21:15:15.135Z,97274.00
2019-05-19T21:17:43.867Z,97286.00
2019-05-19T21:20:12.731Z,97269.00
2019-05-19T21:22:41.591Z,97273.00
2019-05-19T21:25:10.320Z,97272.00
2019-05-19T21:27:39.056Z,97263.00
2019-05-19T21:30:07.806Z,97245.00
2019-05-19T21:32:36.555Z,97245.00
2019-05-19T21:35:05.643Z,97247.00
2019-05-19T21:37:34.374Z,97233.00
2019-05-19T21:40:03.162Z,97231.00
2019-05-19T21:42:31.908Z,97223.00
2019-05-19T21:45:00.779Z,97215.00
2019-05-19T21:47:29.497Z,97219.00
2019-05-19T21:49:58.242Z,97217.00
2019-05-19T21:52:26.982Z,97207.00
2019-05-19T21:54:55.718Z,97210.00
2019-05-19T21:57:24.456Z,97200.00
2019-05-19T21:59:53.213Z,97206.00
2019-05-19T22:02:21.942Z,97208.00
2019-05-19T22:04:50.754Z,97208.00
2019-05-19T22:07:35.691Z,97215.00
2019-05-19T22:10:04.925Z,97205.00
2019-05-19T22:12:33.978Z,97209.00
2019-05-19T22:15:02.724Z,97200.00
2019-05-19T22:17:31.478Z,97208.00
2019-05-19T22:20:00.234Z,97207.00
2019-05-19T22:22:28.984Z,97210.00
2019-05-19T22:24:57.723Z,97208.00
2019-05-19T22:27:26.471Z,97205.00
2019-05-19T22:29:55.211Z,97210.00
2019-05-19T22:32:23.939Z,97211.00
2019-05-19T22:34:52.691Z,97205.00
2019-05-19T22:37:21.431Z,97213.00
2019-05-19T22:39:50.163Z,97222.00
2019-05-19T22:42:18.898Z,97214.00
2019-05-19T22:44:47.622Z,97207.00
2019-05-19T22:47:16.363Z,97220.00
2019-05-19T22:49:45.166Z,97213.00
2019-05-19T22:52:13.907Z,97202.00
2019-05-19T22:54:42.734Z,97204.00
2019-05-19T22:57:11.462Z,97198.00
2019-05-19T22:59:40.186Z,97199.00
2019-05-19T23:02:09.419Z,97183.00
2019-05-19T23:04:38.254Z,97200.00
2019-05-19T23:07:06.982Z,97202.00
2019-05-19T23:09:35.722Z,97187.00
2019-05-19T23:12:04.492Z,97200.00
2019-05-19T23:14:36.002Z,97194.00
2019-05-19T23:17:04.847Z,97185.00
2019-05-19T23:19:33.578Z,97195.00
2019-05-19T23:22:02.445Z,97199.00
2019-05-19T23:24:31.192Z,97176.00
2019-05-19T23:26:59.935Z,97175.00
2019-05-19T23:29:28.684Z,97177.00
2019-05-19T23:32:06.911Z,97173.00
2019-05-19T23:34:27.879Z,97183.00
2019-05-19T23:36:56.602Z,97181.00
2019-05-19T23:39:25.408Z,97172.00
2019-05-19T23:41:54.157Z,97183.00
2019-05-19T23:44:22.890Z,97189.00
2019-05-19T23:46:51.622Z,97172.00
2019-05-19T23:49:20.427Z,97169.00
2019-05-19T23:51:49.167Z,97164.00
2019-05-19T23:54:17.904Z,97168.00
2019-05-19T23:56:46.643Z,97173.00
2019-05-19T23:59:15.381Z,97170.00
